sensor_id;sensor_type;location;lat;lon;timestamp;P1;durP1;ratioP1;P2;durP2;ratioP2
22778;SDS011;11556;51.194;3.800;2022-07-12T00:02:06;9.43;;;5.72;;
22778;SDS011;11556;51.194;3.800;2022-07-12T00:04:32;6.40;;;5.78;;
22778;SDS011;11556;51.194;3.800;2022-07-12T00:06:58;8.05;;;5.95;;
22778;SDS011;11556;51.194;3.800;2022-07-12T00:09:23;7.90;;;5.30;;
22778;SDS011;11556;51.194;3.800;2022-07-12T00:11:49;7.45;;;5.90;;
22778;SDS011;11556;51.194;3.800;2022-07-12T00:14:15;6.18;;;5.55;;
22778;SDS011;11556;51.194;3.800;2022-07-12T00:16:40;6.10;;;5.50;;
22778;SDS011;11556;51.194;3.800;2022-07-12T00:19:06;6.40;;;5.40;;
22778;SDS011;11556;51.194;3.800;2022-07-12T00:21:32;8.85;;;5.20;;
22778;SDS011;11556;51.194;3.800;2022-07-12T00:23:57;11.15;;;5.70;;
22778;SDS011;11556;51.194;3.800;2022-07-12T00:26:23;7.18;;;5.47;;
22778;SDS011;11556;51.194;3.800;2022-07-12T00:28:49;7.45;;;5.20;;
22778;SDS011;11556;51.194;3.800;2022-07-12T00:31:14;7.97;;;6.20;;
22778;SDS011;11556;51.194;3.800;2022-07-12T00:33:40;8.20;;;5.60;;
22778;SDS011;11556;51.194;3.800;2022-07-12T00:36:07;6.68;;;5.53;;
22778;SDS011;11556;51.194;3.800;2022-07-12T00:38:33;8.27;;;5.68;;
22778;SDS011;11556;51.194;3.800;2022-07-12T00:40:59;6.57;;;5.30;;
22778;SDS011;11556;51.194;3.800;2022-07-12T00:43:24;7.00;;;6.30;;
22778;SDS011;11556;51.194;3.800;2022-07-12T00:45:50;7.80;;;5.90;;
22778;SDS011;11556;51.194;3.800;2022-07-12T00:48:16;5.68;;;5.18;;
22778;SDS011;11556;51.194;3.800;2022-07-12T00:50:43;13.52;;;6.43;;
22778;SDS011;11556;51.194;3.800;2022-07-12T00:53:10;7.13;;;5.32;;
22778;SDS011;11556;51.194;3.800;2022-07-12T00:55:37;5.68;;;5.13;;
22778;SDS011;11556;51.194;3.800;2022-07-12T00:58:03;6.35;;;5.60;;
22778;SDS011;11556;51.194;3.800;2022-07-12T01:00:29;7.20;;;5.30;;
22778;SDS011;11556;51.194;3.800;2022-07-12T01:02:56;6.15;;;5.60;;
22778;SDS011;11556;51.194;3.800;2022-07-12T01:05:23;7.15;;;5.63;;
22778;SDS011;11556;51.194;3.800;2022-07-12T01:07:50;8.63;;;5.50;;
22778;SDS011;11556;51.194;3.800;2022-07-12T01:10:18;6.00;;;5.22;;
22778;SDS011;11556;51.194;3.800;2022-07-12T01:12:43;5.85;;;5.25;;
22778;SDS011;11556;51.194;3.800;2022-07-12T01:15:10;7.10;;;5.35;;
22778;SDS011;11556;51.194;3.800;2022-07-12T01:17:36;7.95;;;5.90;;
22778;SDS011;11556;51.194;3.800;2022-07-12T01:20:04;5.68;;;5.18;;
22778;SDS011;11556;51.194;3.800;2022-07-12T01:22:34;6.07;;;5.40;;
22778;SDS011;11556;51.194;3.800;2022-07-12T01:25:06;6.88;;;5.60;;
22778;SDS011;11556;51.194;3.800;2022-07-12T01:27:32;7.93;;;5.70;;
22778;SDS011;11556;51.194;3.800;2022-07-12T01:29:58;6.25;;;5.68;;
22778;SDS011;11556;51.194;3.800;2022-07-12T01:32:26;9.82;;;6.07;;
22778;SDS011;11556;51.194;3.800;2022-07-12T01:34:58;6.65;;;5.53;;
22778;SDS011;11556;51.194;3.800;2022-07-12T01:37:29;8.55;;;6.57;;
22778;SDS011;11556;51.194;3.800;2022-07-12T01:39:58;6.68;;;5.75;;
22778;SDS011;11556;51.194;3.800;2022-07-12T01:42:25;11.00;;;6.38;;
22778;SDS011;11556;51.194;3.800;2022-07-12T01:44:53;7.07;;;5.72;;
22778;SDS011;11556;51.194;3.800;2022-07-12T01:47:28;6.93;;;6.05;;
22778;SDS011;11556;51.194;3.800;2022-07-12T01:49:56;8.15;;;6.40;;
22778;SDS011;11556;51.194;3.800;2022-07-12T01:52:30;7.97;;;5.72;;
22778;SDS011;11556;51.194;3.800;2022-07-12T01:54:56;7.65;;;6.68;;
22778;SDS011;11556;51.194;3.800;2022-07-12T01:57:25;7.03;;;6.10;;
22778;SDS011;11556;51.194;3.800;2022-07-12T01:59:51;7.55;;;6.80;;
22778;SDS011;11556;51.194;3.800;2022-07-12T02:02:19;8.55;;;7.07;;
22778;SDS011;11556;51.194;3.800;2022-07-12T02:04:44;8.77;;;7.82;;
22778;SDS011;11556;51.194;3.800;2022-07-12T02:07:10;9.20;;;7.45;;
22778;SDS011;11556;51.194;3.800;2022-07-12T02:09:36;10.52;;;7.47;;
22778;SDS011;11556;51.194;3.800;2022-07-12T02:12:02;8.90;;;8.00;;
22778;SDS011;11556;51.194;3.800;2022-07-12T02:14:29;9.20;;;7.15;;
22778;SDS011;11556;51.194;3.800;2022-07-12T02:16:54;8.77;;;7.55;;
22778;SDS011;11556;51.194;3.800;2022-07-12T02:19:20;9.70;;;7.40;;
22778;SDS011;11556;51.194;3.800;2022-07-12T02:21:46;10.63;;;7.30;;
22778;SDS011;11556;51.194;3.800;2022-07-12T02:24:11;8.13;;;6.75;;
22778;SDS011;11556;51.194;3.800;2022-07-12T02:26:37;8.48;;;7.57;;
22778;SDS011;11556;51.194;3.800;2022-07-12T02:29:03;8.77;;;7.70;;
22778;SDS011;11556;51.194;3.800;2022-07-12T02:31:30;9.00;;;8.02;;
22778;SDS011;11556;51.194;3.800;2022-07-12T02:33:56;11.07;;;7.85;;
22778;SDS011;11556;51.194;3.800;2022-07-12T02:36:22;11.07;;;9.05;;
22778;SDS011;11556;51.194;3.800;2022-07-12T02:38:48;13.27;;;8.77;;
22778;SDS011;11556;51.194;3.800;2022-07-12T02:41:14;10.93;;;8.70;;
22778;SDS011;11556;51.194;3.800;2022-07-12T02:43:40;9.25;;;8.25;;
22778;SDS011;11556;51.194;3.800;2022-07-12T02:46:06;10.35;;;9.13;;
22778;SDS011;11556;51.194;3.800;2022-07-12T02:48:33;11.95;;;8.80;;
22778;SDS011;11556;51.194;3.800;2022-07-12T02:51:00;12.55;;;9.13;;
22778;SDS011;11556;51.194;3.800;2022-07-12T02:53:26;9.98;;;8.85;;
22778;SDS011;11556;51.194;3.800;2022-07-12T02:55:52;10.82;;;8.88;;
22778;SDS011;11556;51.194;3.800;2022-07-12T02:58:18;9.52;;;8.25;;
22778;SDS011;11556;51.194;3.800;2022-07-12T03:00:44;10.05;;;8.20;;
22778;SDS011;11556;51.194;3.800;2022-07-12T03:03:10;9.73;;;7.68;;
22778;SDS011;11556;51.194;3.800;2022-07-12T03:05:37;10.18;;;8.18;;
22778;SDS011;11556;51.194;3.800;2022-07-12T03:08:03;14.43;;;9.18;;
22778;SDS011;11556;51.194;3.800;2022-07-12T03:10:29;12.65;;;9.07;;
22778;SDS011;11556;51.194;3.800;2022-07-12T03:12:55;12.00;;;9.57;;
22778;SDS011;11556;51.194;3.800;2022-07-12T03:15:21;12.52;;;9.82;;
22778;SDS011;11556;51.194;3.800;2022-07-12T03:17:46;11.23;;;9.80;;
22778;SDS011;11556;51.194;3.800;2022-07-12T03:20:12;15.80;;;9.55;;
22778;SDS011;11556;51.194;3.800;2022-07-12T03:22:40;13.25;;;9.65;;
22778;SDS011;11556;51.194;3.800;2022-07-12T03:25:06;10.57;;;8.73;;
22778;SDS011;11556;51.194;3.800;2022-07-12T03:27:33;13.88;;;9.40;;
22778;SDS011;11556;51.194;3.800;2022-07-12T03:30:00;13.48;;;9.52;;
22778;SDS011;11556;51.194;3.800;2022-07-12T03:32:25;12.07;;;9.93;;
22778;SDS011;11556;51.194;3.800;2022-07-12T03:34:51;14.30;;;9.13;;
22778;SDS011;11556;51.194;3.800;2022-07-12T03:37:17;14.07;;;9.70;;
22778;SDS011;11556;51.194;3.800;2022-07-12T03:39:43;18.95;;;10.82;;
22778;SDS011;11556;51.194;3.800;2022-07-12T03:42:09;12.30;;;10.15;;
22778;SDS011;11556;51.194;3.800;2022-07-12T03:44:36;13.07;;;10.00;;
22778;SDS011;11556;51.194;3.800;2022-07-12T03:47:02;12.30;;;9.43;;
22778;SDS011;11556;51.194;3.800;2022-07-12T03:49:27;10.70;;;9.60;;
22778;SDS011;11556;51.194;3.800;2022-07-12T03:51:53;15.43;;;10.88;;
22778;SDS011;11556;51.194;3.800;2022-07-12T03:54:18;13.68;;;10.40;;
22778;SDS011;11556;51.194;3.800;2022-07-12T03:56:44;13.80;;;10.63;;
22778;SDS011;11556;51.194;3.800;2022-07-12T03:59:28;13.20;;;10.50;;
22778;SDS011;11556;51.194;3.800;2022-07-12T04:01:54;11.75;;;10.50;;
22778;SDS011;11556;51.194;3.800;2022-07-12T04:04:20;14.43;;;10.38;;
22778;SDS011;11556;51.194;3.800;2022-07-12T04:06:46;12.75;;;9.80;;
22778;SDS011;11556;51.194;3.800;2022-07-12T04:09:12;10.45;;;9.35;;
22778;SDS011;11556;51.194;3.800;2022-07-12T04:11:38;10.57;;;9.32;;
22778;SDS011;11556;51.194;3.800;2022-07-12T04:14:06;12.32;;;9.98;;
22778;SDS011;11556;51.194;3.800;2022-07-12T04:16:32;14.18;;;10.20;;
22778;SDS011;11556;51.194;3.800;2022-07-12T04:18:57;10.82;;;9.48;;
22778;SDS011;11556;51.194;3.800;2022-07-12T04:21:23;11.95;;;9.65;;
22778;SDS011;11556;51.194;3.800;2022-07-12T04:23:49;10.55;;;8.45;;
22778;SDS011;11556;51.194;3.800;2022-07-12T04:26:15;12.45;;;8.75;;
22778;SDS011;11556;51.194;3.800;2022-07-12T04:28:40;12.55;;;8.98;;
22778;SDS011;11556;51.194;3.800;2022-07-12T04:31:06;13.88;;;8.30;;
22778;SDS011;11556;51.194;3.800;2022-07-12T04:33:32;11.82;;;8.25;;
22778;SDS011;11556;51.194;3.800;2022-07-12T04:35:58;8.40;;;7.18;;
22778;SDS011;11556;51.194;3.800;2022-07-12T04:38:24;10.23;;;7.38;;
22778;SDS011;11556;51.194;3.800;2022-07-12T04:40:50;14.70;;;8.23;;
22778;SDS011;11556;51.194;3.800;2022-07-12T04:43:15;11.00;;;7.38;;
22778;SDS011;11556;51.194;3.800;2022-07-12T04:45:41;11.18;;;7.93;;
22778;SDS011;11556;51.194;3.800;2022-07-12T04:48:10;12.20;;;7.63;;
22778;SDS011;11556;51.194;3.800;2022-07-12T04:50:36;10.48;;;7.53;;
22778;SDS011;11556;51.194;3.800;2022-07-12T04:53:02;14.70;;;7.60;;
22778;SDS011;11556;51.194;3.800;2022-07-12T04:55:27;23.50;;;8.40;;
22778;SDS011;11556;51.194;3.800;2022-07-12T04:57:53;16.80;;;7.60;;
22778;SDS011;11556;51.194;3.800;2022-07-12T05:00:19;13.80;;;5.90;;
22778;SDS011;11556;51.194;3.800;2022-07-12T05:02:45;12.18;;;6.43;;
22778;SDS011;11556;51.194;3.800;2022-07-12T05:05:11;17.70;;;6.80;;
22778;SDS011;11556;51.194;3.800;2022-07-12T05:07:36;8.43;;;4.93;;
22778;SDS011;11556;51.194;3.800;2022-07-12T05:10:02;8.80;;;5.40;;
22778;SDS011;11556;51.194;3.800;2022-07-12T05:12:28;10.90;;;4.97;;
22778;SDS011;11556;51.194;3.800;2022-07-12T05:14:54;6.53;;;4.10;;
22778;SDS011;11556;51.194;3.800;2022-07-12T05:17:19;6.50;;;4.10;;
22778;SDS011;11556;51.194;3.800;2022-07-12T05:19:46;4.78;;;3.42;;
22778;SDS011;11556;51.194;3.800;2022-07-12T05:22:12;4.45;;;3.35;;
22778;SDS011;11556;51.194;3.800;2022-07-12T05:24:37;6.75;;;3.42;;
22778;SDS011;11556;51.194;3.800;2022-07-12T05:27:03;3.97;;;3.67;;
22778;SDS011;11556;51.194;3.800;2022-07-12T05:29:29;4.90;;;3.95;;
22778;SDS011;11556;51.194;3.800;2022-07-12T05:31:55;5.28;;;3.92;;
22778;SDS011;11556;51.194;3.800;2022-07-12T05:34:21;7.22;;;3.40;;
22778;SDS011;11556;51.194;3.800;2022-07-12T05:36:47;4.40;;;4.03;;
22778;SDS011;11556;51.194;3.800;2022-07-12T05:39:12;3.90;;;3.60;;
22778;SDS011;11556;51.194;3.800;2022-07-12T05:41:38;7.38;;;3.92;;
22778;SDS011;11556;51.194;3.800;2022-07-12T05:44:04;4.57;;;3.60;;
22778;SDS011;11556;51.194;3.800;2022-07-12T05:46:30;4.43;;;4.00;;
22778;SDS011;11556;51.194;3.800;2022-07-12T05:48:55;5.60;;;3.28;;
22778;SDS011;11556;51.194;3.800;2022-07-12T05:51:21;6.88;;;3.80;;
22778;SDS011;11556;51.194;3.800;2022-07-12T05:54:05;5.95;;;4.15;;
22778;SDS011;11556;51.194;3.800;2022-07-12T05:56:31;6.82;;;3.65;;
22778;SDS011;11556;51.194;3.800;2022-07-12T05:58:56;5.05;;;3.25;;
22778;SDS011;11556;51.194;3.800;2022-07-12T06:01:23;5.45;;;3.95;;
22778;SDS011;11556;51.194;3.800;2022-07-12T06:03:48;6.93;;;4.07;;
22778;SDS011;11556;51.194;3.800;2022-07-12T06:06:14;5.13;;;4.03;;
22778;SDS011;11556;51.194;3.800;2022-07-12T06:08:39;5.97;;;4.40;;
22778;SDS011;11556;51.194;3.800;2022-07-12T06:11:05;6.72;;;4.90;;
22778;SDS011;11556;51.194;3.800;2022-07-12T06:13:31;6.63;;;4.63;;
22778;SDS011;11556;51.194;3.800;2022-07-12T06:15:56;12.77;;;6.80;;
22778;SDS011;11556;51.194;3.800;2022-07-12T06:18:22;8.80;;;6.15;;
22778;SDS011;11556;51.194;3.800;2022-07-12T06:20:48;12.20;;;8.20;;
22778;SDS011;11556;51.194;3.800;2022-07-12T06:23:13;12.63;;;6.40;;
22778;SDS011;11556;51.194;3.800;2022-07-12T06:25:39;7.60;;;5.60;;
22778;SDS011;11556;51.194;3.800;2022-07-12T06:28:05;11.98;;;6.25;;
22778;SDS011;11556;51.194;3.800;2022-07-12T06:30:31;12.70;;;5.93;;
22778;SDS011;11556;51.194;3.800;2022-07-12T06:32:57;17.75;;;8.50;;
22778;SDS011;11556;51.194;3.800;2022-07-12T06:35:23;12.88;;;7.25;;
22778;SDS011;11556;51.194;3.800;2022-07-12T06:37:48;19.33;;;8.85;;
22778;SDS011;11556;51.194;3.800;2022-07-12T06:40:14;22.08;;;9.20;;
22778;SDS011;11556;51.194;3.800;2022-07-12T06:42:42;21.83;;;9.63;;
22778;SDS011;11556;51.194;3.800;2022-07-12T06:45:08;18.63;;;8.05;;
22778;SDS011;11556;51.194;3.800;2022-07-12T06:47:34;23.92;;;8.95;;
22778;SDS011;11556;51.194;3.800;2022-07-12T06:50:00;25.50;;;9.65;;
22778;SDS011;11556;51.194;3.800;2022-07-12T06:52:26;21.83;;;9.15;;
22778;SDS011;11556;51.194;3.800;2022-07-12T06:54:52;18.08;;;8.75;;
22778;SDS011;11556;51.194;3.800;2022-07-12T06:57:18;14.27;;;9.80;;
22778;SDS011;11556;51.194;3.800;2022-07-12T06:59:43;12.23;;;8.45;;
22778;SDS011;11556;51.194;3.800;2022-07-12T07:02:09;8.68;;;6.40;;
22778;SDS011;11556;51.194;3.800;2022-07-12T07:04:35;6.85;;;6.25;;
22778;SDS011;11556;51.194;3.800;2022-07-12T07:07:00;4.88;;;4.45;;
22778;SDS011;11556;51.194;3.800;2022-07-12T07:09:26;8.68;;;7.78;;
22778;SDS011;11556;51.194;3.800;2022-07-12T07:11:52;6.40;;;4.68;;
22778;SDS011;11556;51.194;3.800;2022-07-12T07:14:18;12.00;;;8.43;;
22778;SDS011;11556;51.194;3.800;2022-07-12T07:16:44;6.03;;;4.63;;
22778;SDS011;11556;51.194;3.800;2022-07-12T07:19:11;10.07;;;6.03;;
22778;SDS011;11556;51.194;3.800;2022-07-12T07:21:37;8.38;;;5.05;;
22778;SDS011;11556;51.194;3.800;2022-07-12T07:24:03;12.23;;;6.15;;
22778;SDS011;11556;51.194;3.800;2022-07-12T07:26:29;10.88;;;6.20;;
22778;SDS011;11556;51.194;3.800;2022-07-12T07:28:55;12.75;;;6.70;;
22778;SDS011;11556;51.194;3.800;2022-07-12T07:31:39;12.55;;;8.95;;
22778;SDS011;11556;51.194;3.800;2022-07-12T07:34:05;10.85;;;7.13;;
22778;SDS011;11556;51.194;3.800;2022-07-12T07:36:31;16.73;;;10.25;;
22778;SDS011;11556;51.194;3.800;2022-07-12T07:38:57;15.48;;;7.65;;
22778;SDS011;11556;51.194;3.800;2022-07-12T07:41:24;23.83;;;12.45;;
22778;SDS011;11556;51.194;3.800;2022-07-12T07:43:49;17.25;;;11.10;;
22778;SDS011;11556;51.194;3.800;2022-07-12T07:46:15;14.70;;;9.00;;
22778;SDS011;11556;51.194;3.800;2022-07-12T07:48:42;5.80;;;5.13;;
22778;SDS011;11556;51.194;3.800;2022-07-12T07:51:07;10.95;;;6.15;;
22778;SDS011;11556;51.194;3.800;2022-07-12T07:53:33;11.18;;;6.55;;
22778;SDS011;11556;51.194;3.800;2022-07-12T07:55:58;38.38;;;21.45;;
22778;SDS011;11556;51.194;3.800;2022-07-12T07:58:25;40.70;;;22.20;;
22778;SDS011;11556;51.194;3.800;2022-07-12T08:00:50;29.52;;;15.07;;
22778;SDS011;11556;51.194;3.800;2022-07-12T08:03:17;7.30;;;4.93;;
22778;SDS011;11556;51.194;3.800;2022-07-12T08:05:43;6.07;;;4.38;;
22778;SDS011;11556;51.194;3.800;2022-07-12T08:08:09;5.60;;;4.70;;
22778;SDS011;11556;51.194;3.800;2022-07-12T08:10:36;3.88;;;3.50;;
22778;SDS011;11556;51.194;3.800;2022-07-12T08:13:01;5.53;;;4.30;;
22778;SDS011;11556;51.194;3.800;2022-07-12T08:15:27;4.97;;;3.90;;
22778;SDS011;11556;51.194;3.800;2022-07-12T08:17:54;5.13;;;3.55;;
22778;SDS011;11556;51.194;3.800;2022-07-12T08:20:19;6.47;;;3.47;;
22778;SDS011;11556;51.194;3.800;2022-07-12T08:22:46;8.85;;;3.53;;
22778;SDS011;11556;51.194;3.800;2022-07-12T08:25:12;14.60;;;5.18;;
22778;SDS011;11556;51.194;3.800;2022-07-12T08:27:38;6.55;;;4.22;;
22778;SDS011;11556;51.194;3.800;2022-07-12T08:30:04;7.53;;;4.20;;
22778;SDS011;11556;51.194;3.800;2022-07-12T08:32:30;8.38;;;4.85;;
22778;SDS011;11556;51.194;3.800;2022-07-12T08:34:56;6.03;;;4.30;;
22778;SDS011;11556;51.194;3.800;2022-07-12T08:37:25;5.93;;;4.00;;
22778;SDS011;11556;51.194;3.800;2022-07-12T08:39:52;4.43;;;3.13;;
22778;SDS011;11556;51.194;3.800;2022-07-12T08:42:17;7.40;;;4.07;;
22778;SDS011;11556;51.194;3.800;2022-07-12T08:44:55;10.80;;;4.00;;
22778;SDS011;11556;51.194;3.800;2022-07-12T08:47:22;4.43;;;3.78;;
22778;SDS011;11556;51.194;3.800;2022-07-12T08:52:39;5.97;;;3.30;;
22778;SDS011;11556;51.194;3.800;2022-07-12T08:55:25;8.33;;;3.97;;
22778;SDS011;11556;51.194;3.800;2022-07-12T08:58:02;5.10;;;3.65;;
22778;SDS011;11556;51.194;3.800;2022-07-12T09:00:39;12.10;;;5.15;;
22778;SDS011;11556;51.194;3.800;2022-07-12T09:03:05;5.70;;;4.43;;
22778;SDS011;11556;51.194;3.800;2022-07-12T09:05:32;11.38;;;6.07;;
22778;SDS011;11556;51.194;3.800;2022-07-12T09:08:05;18.00;;;6.82;;
22778;SDS011;11556;51.194;3.800;2022-07-12T09:10:32;17.05;;;7.28;;
22778;SDS011;11556;51.194;3.800;2022-07-12T09:12:59;20.13;;;9.70;;
22778;SDS011;11556;51.194;3.800;2022-07-12T09:15:25;7.88;;;4.45;;
22778;SDS011;11556;51.194;3.800;2022-07-12T09:17:58;13.15;;;6.63;;
22778;SDS011;11556;51.194;3.800;2022-07-12T09:20:31;9.82;;;6.28;;
22778;SDS011;11556;51.194;3.800;2022-07-12T09:23:00;16.73;;;9.20;;
22778;SDS011;11556;51.194;3.800;2022-07-12T09:25:29;16.25;;;6.38;;
22778;SDS011;11556;51.194;3.800;2022-07-12T09:27:57;14.65;;;4.72;;
22778;SDS011;11556;51.194;3.800;2022-07-12T09:30:24;4.35;;;2.72;;
22778;SDS011;11556;51.194;3.800;2022-07-12T09:32:56;7.10;;;2.50;;
22778;SDS011;11556;51.194;3.800;2022-07-12T09:38:50;2.53;;;2.33;;
22778;SDS011;11556;51.194;3.800;2022-07-12T09:41:25;2.50;;;2.30;;
22778;SDS011;11556;51.194;3.800;2022-07-12T09:43:51;2.95;;;2.22;;
22778;SDS011;11556;51.194;3.800;2022-07-12T09:46:18;2.90;;;2.03;;
22778;SDS011;11556;51.194;3.800;2022-07-12T09:48:44;4.25;;;2.30;;
22778;SDS011;11556;51.194;3.800;2022-07-12T09:51:14;4.68;;;2.50;;
22778;SDS011;11556;51.194;3.800;2022-07-12T09:53:43;2.30;;;2.10;;
22778;SDS011;11556;51.194;3.800;2022-07-12T09:56:12;3.72;;;2.40;;
22778;SDS011;11556;51.194;3.800;2022-07-12T09:58:39;2.85;;;2.30;;
22778;SDS011;11556;51.194;3.800;2022-07-12T10:01:26;2.72;;;2.20;;
22778;SDS011;11556;51.194;3.800;2022-07-12T10:03:56;4.28;;;2.08;;
22778;SDS011;11556;51.194;3.800;2022-07-12T10:06:27;6.22;;;2.00;;
22778;SDS011;11556;51.194;3.800;2022-07-12T10:08:55;3.60;;;1.70;;
22778;SDS011;11556;51.194;3.800;2022-07-12T10:11:21;8.48;;;5.03;;
22778;SDS011;11556;51.194;3.800;2022-07-12T10:13:48;4.10;;;3.60;;
22778;SDS011;11556;51.194;3.800;2022-07-12T10:16:15;4.95;;;3.33;;
22778;SDS011;11556;51.194;3.800;2022-07-12T10:18:49;5.85;;;2.70;;
22778;SDS011;11556;51.194;3.800;2022-07-12T10:21:57;4.90;;;2.53;;
22778;SDS011;11556;51.194;3.800;2022-07-12T10:24:45;2.63;;;2.17;;
22778;SDS011;11556;51.194;3.800;2022-07-12T10:29:39;5.95;;;2.55;;
22778;SDS011;11556;51.194;3.800;2022-07-12T10:32:26;2.83;;;2.50;;
22778;SDS011;11556;51.194;3.800;2022-07-12T10:37:30;16.95;;;10.15;;
22778;SDS011;11556;51.194;3.800;2022-07-12T10:42:38;11.30;;;4.05;;
22778;SDS011;11556;51.194;3.800;2022-07-12T10:45:09;11.65;;;4.55;;
22778;SDS011;11556;51.194;3.800;2022-07-12T10:56:05;6.72;;;2.90;;
22778;SDS011;11556;51.194;3.800;2022-07-12T10:58:30;4.45;;;3.15;;
22778;SDS011;11556;51.194;3.800;2022-07-12T11:00:57;4.65;;;3.10;;
22778;SDS011;11556;51.194;3.800;2022-07-12T11:03:29;5.22;;;3.38;;
22778;SDS011;11556;51.194;3.800;2022-07-12T11:06:00;7.15;;;4.03;;
22778;SDS011;11556;51.194;3.800;2022-07-12T11:08:28;3.00;;;2.00;;
22778;SDS011;11556;51.194;3.800;2022-07-12T11:10:58;8.63;;;4.90;;
22778;SDS011;11556;51.194;3.800;2022-07-12T11:13:24;10.50;;;5.90;;
22778;SDS011;11556;51.194;3.800;2022-07-12T11:15:57;11.43;;;4.82;;
22778;SDS011;11556;51.194;3.800;2022-07-12T11:18:27;2.65;;;1.50;;
22778;SDS011;11556;51.194;3.800;2022-07-12T11:20:55;7.18;;;1.75;;
22778;SDS011;11556;51.194;3.800;2022-07-12T11:23:25;7.15;;;2.53;;
22778;SDS011;11556;51.194;3.800;2022-07-12T11:25:54;5.95;;;2.13;;
22778;SDS011;11556;51.194;3.800;2022-07-12T11:28:27;6.43;;;3.58;;
22778;SDS011;11556;51.194;3.800;2022-07-12T11:31:00;3.97;;;2.10;;
22778;SDS011;11556;51.194;3.800;2022-07-12T11:33:37;5.05;;;3.33;;
22778;SDS011;11556;51.194;3.800;2022-07-12T11:36:05;11.00;;;2.83;;
22778;SDS011;11556;51.194;3.800;2022-07-12T11:38:32;8.27;;;2.85;;
22778;SDS011;11556;51.194;3.800;2022-07-12T11:41:00;7.28;;;1.98;;
22778;SDS011;11556;51.194;3.800;2022-07-12T11:43:28;9.45;;;3.17;;
22778;SDS011;11556;51.194;3.800;2022-07-12T11:45:55;5.30;;;2.00;;
22778;SDS011;11556;51.194;3.800;2022-07-12T11:48:21;7.47;;;2.40;;
22778;SDS011;11556;51.194;3.800;2022-07-12T11:50:52;6.50;;;2.35;;
22778;SDS011;11556;51.194;3.800;2022-07-12T11:53:25;4.97;;;1.50;;
22778;SDS011;11556;51.194;3.800;2022-07-12T11:55:52;4.85;;;1.40;;
22778;SDS011;11556;51.194;3.800;2022-07-12T11:58:21;1.42;;;1.25;;
22778;SDS011;11556;51.194;3.800;2022-07-12T12:00:48;2.00;;;1.27;;
22778;SDS011;11556;51.194;3.800;2022-07-12T12:03:15;7.75;;;1.40;;
22778;SDS011;11556;51.194;3.800;2022-07-12T12:05:42;2.05;;;1.27;;
22778;SDS011;11556;51.194;3.800;2022-07-12T12:08:11;2.50;;;1.50;;
22778;SDS011;11556;51.194;3.800;2022-07-12T12:10:38;4.15;;;1.10;;
22778;SDS011;11556;51.194;3.800;2022-07-12T12:13:11;6.47;;;3.80;;
22778;SDS011;11556;51.194;3.800;2022-07-12T12:15:41;5.93;;;2.15;;
22778;SDS011;11556;51.194;3.800;2022-07-12T12:18:14;6.38;;;1.52;;
22778;SDS011;11556;51.194;3.800;2022-07-12T12:20:40;3.60;;;2.00;;
22778;SDS011;11556;51.194;3.800;2022-07-12T12:23:16;7.80;;;2.50;;
22778;SDS011;11556;51.194;3.800;2022-07-12T12:25:43;2.17;;;1.73;;
22778;SDS011;11556;51.194;3.800;2022-07-12T12:28:10;12.57;;;2.00;;
22778;SDS011;11556;51.194;3.800;2022-07-12T12:30:47;5.93;;;1.55;;
22778;SDS011;11556;51.194;3.800;2022-07-12T12:33:32;1.75;;;1.20;;
22778;SDS011;11556;51.194;3.800;2022-07-12T12:38:48;3.42;;;1.80;;
22778;SDS011;11556;51.194;3.800;2022-07-12T12:41:15;4.93;;;1.60;;
22778;SDS011;11556;51.194;3.800;2022-07-12T12:43:42;4.22;;;1.33;;
22778;SDS011;11556;51.194;3.800;2022-07-12T12:46:08;4.07;;;1.80;;
22778;SDS011;11556;51.194;3.800;2022-07-12T12:48:34;1.05;;;0.95;;
22778;SDS011;11556;51.194;3.800;2022-07-12T12:51:04;1.77;;;1.20;;
22778;SDS011;11556;51.194;3.800;2022-07-12T12:53:34;3.10;;;0.80;;
22778;SDS011;11556;51.194;3.800;2022-07-12T12:56:04;1.95;;;1.00;;
22778;SDS011;11556;51.194;3.800;2022-07-12T12:58:33;2.22;;;0.80;;
22778;SDS011;11556;51.194;3.800;2022-07-12T13:01:00;3.17;;;1.20;;
22778;SDS011;11556;51.194;3.800;2022-07-12T13:03:25;1.10;;;0.98;;
22778;SDS011;11556;51.194;3.800;2022-07-12T13:05:51;1.30;;;0.93;;
22778;SDS011;11556;51.194;3.800;2022-07-12T13:08:17;1.63;;;0.80;;
22778;SDS011;11556;51.194;3.800;2022-07-12T13:10:44;4.63;;;0.90;;
22778;SDS011;11556;51.194;3.800;2022-07-12T13:13:11;2.50;;;1.10;;
22778;SDS011;11556;51.194;3.800;2022-07-12T13:15:40;2.25;;;1.08;;
22778;SDS011;11556;51.194;3.800;2022-07-12T13:18:07;4.15;;;1.65;;
22778;SDS011;11556;51.194;3.800;2022-07-12T13:20:33;4.75;;;1.40;;
22778;SDS011;11556;51.194;3.800;2022-07-12T13:22:59;4.70;;;2.30;;
22778;SDS011;11556;51.194;3.800;2022-07-12T13:25:25;4.93;;;2.00;;
22778;SDS011;11556;51.194;3.800;2022-07-12T13:27:51;4.22;;;2.20;;
22778;SDS011;11556;51.194;3.800;2022-07-12T13:30:19;5.50;;;1.80;;
22778;SDS011;11556;51.194;3.800;2022-07-12T13:32:45;6.22;;;1.30;;
22778;SDS011;11556;51.194;3.800;2022-07-12T13:35:12;5.70;;;2.10;;
22778;SDS011;11556;51.194;3.800;2022-07-12T13:37:39;4.78;;;2.28;;
22778;SDS011;11556;51.194;3.800;2022-07-12T13:40:08;4.95;;;1.80;;
22778;SDS011;11556;51.194;3.800;2022-07-12T13:42:41;4.22;;;1.55;;
22778;SDS011;11556;51.194;3.800;2022-07-12T13:45:08;3.47;;;1.60;;
22778;SDS011;11556;51.194;3.800;2022-07-12T13:47:36;2.85;;;1.77;;
22778;SDS011;11556;51.194;3.800;2022-07-12T13:50:02;3.15;;;1.63;;
22778;SDS011;11556;51.194;3.800;2022-07-12T13:52:30;4.95;;;1.92;;
22778;SDS011;11556;51.194;3.800;2022-07-12T13:54:56;4.82;;;1.90;;
22778;SDS011;11556;51.194;3.800;2022-07-12T13:57:22;5.75;;;1.90;;
22778;SDS011;11556;51.194;3.800;2022-07-12T13:59:47;4.15;;;1.40;;
22778;SDS011;11556;51.194;3.800;2022-07-12T14:02:13;5.95;;;1.60;;
22778;SDS011;11556;51.194;3.800;2022-07-12T14:04:39;6.47;;;1.80;;
22778;SDS011;11556;51.194;3.800;2022-07-12T14:07:05;6.47;;;2.08;;
22778;SDS011;11556;51.194;3.800;2022-07-12T14:09:30;3.35;;;1.38;;
22778;SDS011;11556;51.194;3.800;2022-07-12T14:11:56;4.07;;;2.28;;
22778;SDS011;11556;51.194;3.800;2022-07-12T14:14:23;6.93;;;2.10;;
22778;SDS011;11556;51.194;3.800;2022-07-12T14:17:07;4.57;;;1.77;;
22778;SDS011;11556;51.194;3.800;2022-07-12T14:19:33;7.95;;;2.13;;
22778;SDS011;11556;51.194;3.800;2022-07-12T14:21:58;3.75;;;2.00;;
22778;SDS011;11556;51.194;3.800;2022-07-12T14:24:24;4.63;;;2.08;;
22778;SDS011;11556;51.194;3.800;2022-07-12T14:26:50;3.40;;;1.58;;
22778;SDS011;11556;51.194;3.800;2022-07-12T14:29:15;5.60;;;1.80;;
22778;SDS011;11556;51.194;3.800;2022-07-12T14:31:41;7.72;;;1.90;;
22778;SDS011;11556;51.194;3.800;2022-07-12T14:34:07;4.60;;;2.03;;
22778;SDS011;11556;51.194;3.800;2022-07-12T14:36:32;6.95;;;1.90;;
22778;SDS011;11556;51.194;3.800;2022-07-12T14:38:58;4.50;;;2.13;;
22778;SDS011;11556;51.194;3.800;2022-07-12T14:41:24;3.22;;;1.95;;
22778;SDS011;11556;51.194;3.800;2022-07-12T14:43:50;2.97;;;1.70;;
22778;SDS011;11556;51.194;3.800;2022-07-12T14:46:15;7.00;;;2.10;;
22778;SDS011;11556;51.194;3.800;2022-07-12T14:48:42;6.18;;;1.98;;
22778;SDS011;11556;51.194;3.800;2022-07-12T14:51:08;3.08;;;1.70;;
22778;SDS011;11556;51.194;3.800;2022-07-12T14:53:34;3.17;;;1.67;;
22778;SDS011;11556;51.194;3.800;2022-07-12T14:55:59;1.83;;;1.10;;
22778;SDS011;11556;51.194;3.800;2022-07-12T14:58:25;2.38;;;1.27;;
22778;SDS011;11556;51.194;3.800;2022-07-12T15:00:51;1.58;;;1.10;;
22778;SDS011;11556;51.194;3.800;2022-07-12T15:03:16;3.47;;;1.10;;
22778;SDS011;11556;51.194;3.800;2022-07-12T15:05:42;4.18;;;1.20;;
22778;SDS011;11556;51.194;3.800;2022-07-12T15:08:08;5.22;;;1.58;;
22778;SDS011;11556;51.194;3.800;2022-07-12T15:10:33;12.38;;;1.85;;